sensor_id;sensor_type;location;lat;lon;timestamp;P1;durP1;ratioP1;P2;durP2;ratioP2
16994;SDS011;8614;48.522;9.206;2022-10-13T00:01:30;24.80;;;22.57;;
16994;SDS011;8614;48.522;9.206;2022-10-13T00:03:56;24.57;;;22.17;;
16994;SDS011;8614;48.522;9.206;2022-10-13T00:06:24;24.10;;;21.87;;
16994;SDS011;8614;48.522;9.206;2022-10-13T00:08:51;24.20;;;21.90;;
16994;SDS011;8614;48.522;9.206;2022-10-13T00:11:19;23.07;;;21.07;;
16994;SDS011;8614;48.522;9.206;2022-10-13T00:13:48;22.33;;;20.40;;
16994;SDS011;8614;48.522;9.206;2022-10-13T00:16:19;24.23;;;22.00;;
16994;SDS011;8614;48.522;9.206;2022-10-13T00:18:46;23.83;;;21.73;;
16994;SDS011;8614;48.522;9.206;2022-10-13T00:21:14;25.83;;;23.23;;
16994;SDS011;8614;48.522;9.206;2022-10-13T00:23:46;23.03;;;20.80;;
16994;SDS011;8614;48.522;9.206;2022-10-13T00:26:17;23.20;;;21.20;;
16994;SDS011;8614;48.522;9.206;2022-10-13T00:28:46;25.43;;;22.67;;
16994;SDS011;8614;48.522;9.206;2022-10-13T00:31:13;23.20;;;21.17;;
16994;SDS011;8614;48.522;9.206;2022-10-13T00:33:42;23.27;;;21.17;;
16994;SDS011;8614;48.522;9.206;2022-10-13T00:36:09;25.17;;;22.57;;
16994;SDS011;8614;48.522;9.206;2022-10-13T00:38:36;23.60;;;21.33;;
16994;SDS011;8614;48.522;9.206;2022-10-13T00:41:04;22.63;;;20.50;;
16994;SDS011;8614;48.522;9.206;2022-10-13T00:46:14;24.33;;;21.93;;
16994;SDS011;8614;48.522;9.206;2022-10-13T00:48:44;23.93;;;21.47;;
16994;SDS011;8614;48.522;9.206;2022-10-13T00:51:14;22.20;;;20.20;;
16994;SDS011;8614;48.522;9.206;2022-10-13T00:53:43;24.10;;;21.67;;
16994;SDS011;8614;48.522;9.206;2022-10-13T00:56:13;25.27;;;22.83;;
16994;SDS011;8614;48.522;9.206;2022-10-13T00:58:42;24.83;;;22.50;;
16994;SDS011;8614;48.522;9.206;2022-10-13T01:01:12;24.87;;;22.57;;
16994;SDS011;8614;48.522;9.206;2022-10-13T01:03:39;27.47;;;24.77;;
16994;SDS011;8614;48.522;9.206;2022-10-13T01:06:08;28.57;;;24.03;;
16994;SDS011;8614;48.522;9.206;2022-10-13T01:08:37;29.13;;;26.00;;
16994;SDS011;8614;48.522;9.206;2022-10-13T01:11:08;24.70;;;22.27;;
16994;SDS011;8614;48.522;9.206;2022-10-13T01:13:49;24.23;;;21.87;;
16994;SDS011;8614;48.522;9.206;2022-10-13T01:16:24;24.47;;;22.27;;
16994;SDS011;8614;48.522;9.206;2022-10-13T01:18:59;26.10;;;23.67;;
16994;SDS011;8614;48.522;9.206;2022-10-13T01:21:35;24.40;;;19.90;;
16994;SDS011;8614;48.522;9.206;2022-10-13T01:24:16;30.53;;;23.00;;
16994;SDS011;8614;48.522;9.206;2022-10-13T01:26:58;21.50;;;19.60;;
16994;SDS011;8614;48.522;9.206;2022-10-13T01:29:53;17.13;;;15.33;;
16994;SDS011;8614;48.522;9.206;2022-10-13T01:32:52;16.10;;;14.33;;
16994;SDS011;8614;48.522;9.206;2022-10-13T01:35:38;26.03;;;23.40;;
16994;SDS011;8614;48.522;9.206;2022-10-13T01:38:14;28.40;;;24.93;;
16994;SDS011;8614;48.522;9.206;2022-10-13T01:40:48;26.33;;;24.03;;
16994;SDS011;8614;48.522;9.206;2022-10-13T01:43:26;26.73;;;24.27;;
16994;SDS011;8614;48.522;9.206;2022-10-13T01:45:57;24.43;;;22.23;;
16994;SDS011;8614;48.522;9.206;2022-10-13T01:48:28;25.30;;;22.77;;
16994;SDS011;8614;48.522;9.206;2022-10-13T01:50:58;26.27;;;23.67;;
16994;SDS011;8614;48.522;9.206;2022-10-13T01:53:25;27.47;;;24.63;;
16994;SDS011;8614;48.522;9.206;2022-10-13T01:55:54;24.80;;;22.73;;
16994;SDS011;8614;48.522;9.206;2022-10-13T01:58:23;25.53;;;23.13;;
16994;SDS011;8614;48.522;9.206;2022-10-13T02:00:55;23.30;;;21.23;;
16994;SDS011;8614;48.522;9.206;2022-10-13T02:03:35;25.57;;;22.90;;
16994;SDS011;8614;48.522;9.206;2022-10-13T02:06:12;23.87;;;21.43;;
16994;SDS011;8614;48.522;9.206;2022-10-13T02:08:46;24.53;;;22.33;;
16994;SDS011;8614;48.522;9.206;2022-10-13T02:11:21;23.40;;;21.30;;
16994;SDS011;8614;48.522;9.206;2022-10-13T02:13:51;23.17;;;20.93;;
16994;SDS011;8614;48.522;9.206;2022-10-13T02:16:27;24.37;;;22.17;;
16994;SDS011;8614;48.522;9.206;2022-10-13T02:18:59;22.73;;;20.43;;
16994;SDS011;8614;48.522;9.206;2022-10-13T02:21:28;23.37;;;21.17;;
16994;SDS011;8614;48.522;9.206;2022-10-13T02:24:00;25.23;;;22.30;;
16994;SDS011;8614;48.522;9.206;2022-10-13T02:26:28;22.37;;;20.37;;
16994;SDS011;8614;48.522;9.206;2022-10-13T02:28:59;22.70;;;20.70;;
16994;SDS011;8614;48.522;9.206;2022-10-13T02:31:34;22.03;;;20.10;;
16994;SDS011;8614;48.522;9.206;2022-10-13T02:34:00;22.00;;;20.20;;
16994;SDS011;8614;48.522;9.206;2022-10-13T02:36:27;21.27;;;19.37;;
16994;SDS011;8614;48.522;9.206;2022-10-13T02:38:55;20.47;;;18.60;;
16994;SDS011;8614;48.522;9.206;2022-10-13T02:41:22;21.30;;;19.50;;
16994;SDS011;8614;48.522;9.206;2022-10-13T02:43:48;22.97;;;20.77;;
16994;SDS011;8614;48.522;9.206;2022-10-13T02:46:15;20.47;;;18.77;;
16994;SDS011;8614;48.522;9.206;2022-10-13T02:48:44;21.13;;;19.30;;
16994;SDS011;8614;48.522;9.206;2022-10-13T02:51:10;20.10;;;18.60;;
16994;SDS011;8614;48.522;9.206;2022-10-13T02:53:37;22.67;;;20.73;;
16994;SDS011;8614;48.522;9.206;2022-10-13T02:56:05;20.87;;;19.17;;
16994;SDS011;8614;48.522;9.206;2022-10-13T02:58:33;20.83;;;18.93;;
16994;SDS011;8614;48.522;9.206;2022-10-13T03:01:04;20.13;;;18.53;;
16994;SDS011;8614;48.522;9.206;2022-10-13T03:03:31;21.50;;;19.60;;
16994;SDS011;8614;48.522;9.206;2022-10-13T03:06:00;20.13;;;18.33;;
16994;SDS011;8614;48.522;9.206;2022-10-13T03:08:27;19.73;;;18.23;;
16994;SDS011;8614;48.522;9.206;2022-10-13T03:10:54;19.90;;;18.23;;
16994;SDS011;8614;48.522;9.206;2022-10-13T03:13:22;21.23;;;19.13;;
16994;SDS011;8614;48.522;9.206;2022-10-13T03:15:49;19.40;;;17.80;;
16994;SDS011;8614;48.522;9.206;2022-10-13T03:18:15;21.03;;;19.13;;
16994;SDS011;8614;48.522;9.206;2022-10-13T03:20:42;19.83;;;18.33;;
16994;SDS011;8614;48.522;9.206;2022-10-13T03:23:10;18.97;;;17.47;;
16994;SDS011;8614;48.522;9.206;2022-10-13T03:25:37;18.40;;;17.00;;
16994;SDS011;8614;48.522;9.206;2022-10-13T03:28:04;20.77;;;18.97;;
16994;SDS011;8614;48.522;9.206;2022-10-13T03:30:32;21.37;;;19.47;;
16994;SDS011;8614;48.522;9.206;2022-10-13T03:32:59;20.37;;;18.77;;
16994;SDS011;8614;48.522;9.206;2022-10-13T03:35:26;21.57;;;19.63;;
16994;SDS011;8614;48.522;9.206;2022-10-13T03:37:52;22.87;;;20.93;;
16994;SDS011;8614;48.522;9.206;2022-10-13T03:40:22;20.03;;;18.00;;
16994;SDS011;8614;48.522;9.206;2022-10-13T03:42:49;20.97;;;19.27;;
16994;SDS011;8614;48.522;9.206;2022-10-13T03:45:16;22.20;;;20.30;;
16994;SDS011;8614;48.522;9.206;2022-10-13T03:47:43;20.97;;;19.23;;
16994;SDS011;8614;48.522;9.206;2022-10-13T03:50:10;23.13;;;21.13;;
16994;SDS011;8614;48.522;9.206;2022-10-13T03:52:37;21.00;;;19.33;;
16994;SDS011;8614;48.522;9.206;2022-10-13T03:55:05;18.77;;;17.40;;
16994;SDS011;8614;48.522;9.206;2022-10-13T03:57:33;20.77;;;19.27;;
16994;SDS011;8614;48.522;9.206;2022-10-13T04:00:00;18.90;;;17.50;;
16994;SDS011;8614;48.522;9.206;2022-10-13T04:02:37;19.20;;;17.60;;
16994;SDS011;8614;48.522;9.206;2022-10-13T04:05:04;19.73;;;18.03;;
16994;SDS011;8614;48.522;9.206;2022-10-13T04:07:32;20.10;;;18.57;;
16994;SDS011;8614;48.522;9.206;2022-10-13T04:10:05;20.83;;;19.17;;
16994;SDS011;8614;48.522;9.206;2022-10-13T04:12:33;20.87;;;19.17;;
16994;SDS011;8614;48.522;9.206;2022-10-13T04:15:00;19.97;;;18.43;;
16994;SDS011;8614;48.522;9.206;2022-10-13T04:17:28;21.07;;;19.47;;
16994;SDS011;8614;48.522;9.206;2022-10-13T04:19:55;20.37;;;18.87;;
16994;SDS011;8614;48.522;9.206;2022-10-13T04:22:22;21.63;;;19.73;;
16994;SDS011;8614;48.522;9.206;2022-10-13T04:24:49;21.90;;;20.20;;
16994;SDS011;8614;48.522;9.206;2022-10-13T04:27:16;22.60;;;20.70;;
16994;SDS011;8614;48.522;9.206;2022-10-13T04:29:45;23.33;;;21.37;;
16994;SDS011;8614;48.522;9.206;2022-10-13T04:32:12;23.13;;;21.33;;
16994;SDS011;8614;48.522;9.206;2022-10-13T04:34:39;21.83;;;20.23;;
16994;SDS011;8614;48.522;9.206;2022-10-13T04:37:06;24.03;;;21.97;;
16994;SDS011;8614;48.522;9.206;2022-10-13T04:39:32;22.27;;;20.43;;
16994;SDS011;8614;48.522;9.206;2022-10-13T04:41:59;23.63;;;21.37;;
16994;SDS011;8614;48.522;9.206;2022-10-13T04:44:28;23.33;;;21.37;;
16994;SDS011;8614;48.522;9.206;2022-10-13T04:46:56;22.10;;;20.37;;
16994;SDS011;8614;48.522;9.206;2022-10-13T04:49:24;22.97;;;21.27;;
16994;SDS011;8614;48.522;9.206;2022-10-13T04:51:52;24.33;;;22.13;;
16994;SDS011;8614;48.522;9.206;2022-10-13T04:54:18;23.63;;;21.73;;
16994;SDS011;8614;48.522;9.206;2022-10-13T04:56:45;24.27;;;22.30;;
16994;SDS011;8614;48.522;9.206;2022-10-13T04:59:12;24.23;;;22.13;;
16994;SDS011;8614;48.522;9.206;2022-10-13T05:01:39;24.73;;;22.37;;
16994;SDS011;8614;48.522;9.206;2022-10-13T05:04:12;23.70;;;21.70;;
16994;SDS011;8614;48.522;9.206;2022-10-13T05:06:40;24.40;;;22.40;;
16994;SDS011;8614;48.522;9.206;2022-10-13T05:09:08;23.37;;;21.57;;
16994;SDS011;8614;48.522;9.206;2022-10-13T05:11:39;24.50;;;22.33;;
16994;SDS011;8614;48.522;9.206;2022-10-13T05:14:06;24.73;;;22.63;;
16994;SDS011;8614;48.522;9.206;2022-10-13T05:16:33;23.70;;;21.87;;
16994;SDS011;8614;48.522;9.206;2022-10-13T05:19:00;24.23;;;22.20;;
16994;SDS011;8614;48.522;9.206;2022-10-13T05:21:29;25.13;;;22.70;;
16994;SDS011;8614;48.522;9.206;2022-10-13T05:23:56;26.23;;;23.93;;
16994;SDS011;8614;48.522;9.206;2022-10-13T05:26:24;25.23;;;23.00;;
16994;SDS011;8614;48.522;9.206;2022-10-13T05:28:56;23.67;;;21.77;;
16994;SDS011;8614;48.522;9.206;2022-10-13T05:31:28;23.50;;;21.50;;
16994;SDS011;8614;48.522;9.206;2022-10-13T05:33:57;25.33;;;23.03;;
16994;SDS011;8614;48.522;9.206;2022-10-13T05:36:25;24.80;;;22.60;;
16994;SDS011;8614;48.522;9.206;2022-10-13T05:38:56;24.33;;;22.23;;
16994;SDS011;8614;48.522;9.206;2022-10-13T05:41:24;24.00;;;22.00;;
16994;SDS011;8614;48.522;9.206;2022-10-13T05:43:52;24.17;;;22.17;;
16994;SDS011;8614;48.522;9.206;2022-10-13T05:46:21;25.33;;;23.13;;
16994;SDS011;8614;48.522;9.206;2022-10-13T05:48:48;24.93;;;22.60;;
16994;SDS011;8614;48.522;9.206;2022-10-13T05:51:16;25.73;;;23.37;;
16994;SDS011;8614;48.522;9.206;2022-10-13T05:53:47;24.53;;;22.37;;
16994;SDS011;8614;48.522;9.206;2022-10-13T05:56:18;24.23;;;22.03;;
16994;SDS011;8614;48.522;9.206;2022-10-13T05:58:48;23.07;;;21.17;;
16994;SDS011;8614;48.522;9.206;2022-10-13T06:01:19;22.07;;;20.43;;
16994;SDS011;8614;48.522;9.206;2022-10-13T06:03:49;23.07;;;21.07;;
16994;SDS011;8614;48.522;9.206;2022-10-13T06:06:19;24.27;;;22.00;;
16994;SDS011;8614;48.522;9.206;2022-10-13T06:08:48;23.67;;;21.67;;
16994;SDS011;8614;48.522;9.206;2022-10-13T06:11:15;23.37;;;21.17;;
16994;SDS011;8614;48.522;9.206;2022-10-13T06:13:43;22.97;;;20.93;;
16994;SDS011;8614;48.522;9.206;2022-10-13T06:16:10;21.03;;;19.33;;
16994;SDS011;8614;48.522;9.206;2022-10-13T06:18:37;22.03;;;20.13;;
16994;SDS011;8614;48.522;9.206;2022-10-13T06:21:04;21.47;;;19.87;;
16994;SDS011;8614;48.522;9.206;2022-10-13T06:23:31;20.47;;;18.87;;
16994;SDS011;8614;48.522;9.206;2022-10-13T06:25:58;20.43;;;18.87;;
16994;SDS011;8614;48.522;9.206;2022-10-13T06:28:25;18.60;;;17.03;;
16994;SDS011;8614;48.522;9.206;2022-10-13T06:30:53;18.73;;;17.33;;
16994;SDS011;8614;48.522;9.206;2022-10-13T06:33:21;18.87;;;17.27;;
16994;SDS011;8614;48.522;9.206;2022-10-13T06:35:48;17.93;;;16.53;;
16994;SDS011;8614;48.522;9.206;2022-10-13T06:38:15;17.70;;;16.40;;
16994;SDS011;8614;48.522;9.206;2022-10-13T06:40:46;13.70;;;12.40;;
16994;SDS011;8614;48.522;9.206;2022-10-13T06:43:13;11.97;;;10.83;;
16994;SDS011;8614;48.522;9.206;2022-10-13T06:45:40;13.50;;;12.40;;
16994;SDS011;8614;48.522;9.206;2022-10-13T06:48:08;9.60;;;8.70;;
16994;SDS011;8614;48.522;9.206;2022-10-13T06:50:35;12.63;;;11.63;;
16994;SDS011;8614;48.522;9.206;2022-10-13T06:53:02;13.00;;;12.00;;
16994;SDS011;8614;48.522;9.206;2022-10-13T06:55:29;16.47;;;15.27;;
16994;SDS011;8614;48.522;9.206;2022-10-13T06:57:55;17.20;;;15.77;;
16994;SDS011;8614;48.522;9.206;2022-10-13T07:00:22;20.33;;;18.93;;
16994;SDS011;8614;48.522;9.206;2022-10-13T07:02:49;17.37;;;16.00;;
16994;SDS011;8614;48.522;9.206;2022-10-13T07:05:18;16.80;;;15.50;;
16994;SDS011;8614;48.522;9.206;2022-10-13T07:07:45;14.30;;;13.10;;
16994;SDS011;8614;48.522;9.206;2022-10-13T07:10:12;14.67;;;13.47;;
16994;SDS011;8614;48.522;9.206;2022-10-13T07:12:39;16.27;;;15.07;;
16994;SDS011;8614;48.522;9.206;2022-10-13T07:15:06;16.07;;;14.53;;
16994;SDS011;8614;48.522;9.206;2022-10-13T07:17:33;13.93;;;12.73;;
16994;SDS011;8614;48.522;9.206;2022-10-13T07:20:00;12.03;;;8.90;;
16994;SDS011;8614;48.522;9.206;2022-10-13T07:22:29;11.07;;;8.70;;
16994;SDS011;8614;48.522;9.206;2022-10-13T07:24:57;11.93;;;9.30;;
16994;SDS011;8614;48.522;9.206;2022-10-13T07:27:24;10.23;;;9.20;;
16994;SDS011;8614;48.522;9.206;2022-10-13T07:29:52;11.73;;;10.67;;
16994;SDS011;8614;48.522;9.206;2022-10-13T07:32:19;11.30;;;10.20;;
16994;SDS011;8614;48.522;9.206;2022-10-13T07:34:46;11.17;;;10.17;;
16994;SDS011;8614;48.522;9.206;2022-10-13T07:37:12;11.87;;;10.67;;
16994;SDS011;8614;48.522;9.206;2022-10-13T07:39:40;14.17;;;12.97;;
16994;SDS011;8614;48.522;9.206;2022-10-13T07:42:07;13.73;;;12.43;;
16994;SDS011;8614;48.522;9.206;2022-10-13T07:44:34;17.40;;;15.90;;
16994;SDS011;8614;48.522;9.206;2022-10-13T07:47:01;10.23;;;8.80;;
16994;SDS011;8614;48.522;9.206;2022-10-13T07:49:28;9.33;;;8.20;;
16994;SDS011;8614;48.522;9.206;2022-10-13T07:51:55;13.03;;;11.93;;
16994;SDS011;8614;48.522;9.206;2022-10-13T07:54:22;9.90;;;8.77;;
16994;SDS011;8614;48.522;9.206;2022-10-13T07:56:51;14.03;;;12.47;;
16994;SDS011;8614;48.522;9.206;2022-10-13T07:59:18;15.60;;;14.23;;
16994;SDS011;8614;48.522;9.206;2022-10-13T08:01:45;16.37;;;15.00;;
16994;SDS011;8614;48.522;9.206;2022-10-13T08:04:12;10.97;;;9.97;;
16994;SDS011;8614;48.522;9.206;2022-10-13T08:06:39;14.93;;;13.73;;
16994;SDS011;8614;48.522;9.206;2022-10-13T08:09:07;10.00;;;8.47;;
16994;SDS011;8614;48.522;9.206;2022-10-13T08:11:34;11.10;;;9.43;;
16994;SDS011;8614;48.522;9.206;2022-10-13T08:14:02;10.27;;;8.07;;
16994;SDS011;8614;48.522;9.206;2022-10-13T08:16:29;9.07;;;8.17;;
16994;SDS011;8614;48.522;9.206;2022-10-13T08:18:57;9.23;;;8.03;;
16994;SDS011;8614;48.522;9.206;2022-10-13T08:21:25;10.83;;;8.27;;
16994;SDS011;8614;48.522;9.206;2022-10-13T08:23:53;13.13;;;12.03;;
16994;SDS011;8614;48.522;9.206;2022-10-13T08:26:21;14.17;;;12.97;;
16994;SDS011;8614;48.522;9.206;2022-10-13T08:28:49;15.20;;;12.10;;
16994;SDS011;8614;48.522;9.206;2022-10-13T08:31:18;12.77;;;11.40;;
16994;SDS011;8614;48.522;9.206;2022-10-13T08:33:45;13.83;;;12.73;;
16994;SDS011;8614;48.522;9.206;2022-10-13T08:36:14;12.10;;;10.90;;
16994;SDS011;8614;48.522;9.206;2022-10-13T08:38:41;14.77;;;13.53;;
16994;SDS011;8614;48.522;9.206;2022-10-13T08:41:13;15.00;;;13.80;;
16994;SDS011;8614;48.522;9.206;2022-10-13T08:43:44;15.83;;;14.53;;
16994;SDS011;8614;48.522;9.206;2022-10-13T08:46:15;13.80;;;12.70;;
16994;SDS011;8614;48.522;9.206;2022-10-13T08:48:50;10.33;;;9.20;;
16994;SDS011;8614;48.522;9.206;2022-10-13T08:51:17;13.00;;;11.57;;
16994;SDS011;8614;48.522;9.206;2022-10-13T08:53:44;10.07;;;9.07;;
16994;SDS011;8614;48.522;9.206;2022-10-13T08:56:14;11.87;;;10.77;;
16994;SDS011;8614;48.522;9.206;2022-10-13T08:58:45;15.47;;;13.97;;
16994;SDS011;8614;48.522;9.206;2022-10-13T09:01:13;15.33;;;13.93;;
16994;SDS011;8614;48.522;9.206;2022-10-13T09:03:46;14.20;;;12.77;;
16994;SDS011;8614;48.522;9.206;2022-10-13T09:06:16;14.30;;;13.10;;
16994;SDS011;8614;48.522;9.206;2022-10-13T09:08:51;14.77;;;13.67;;
16994;SDS011;8614;48.522;9.206;2022-10-13T09:11:21;14.17;;;12.97;;
16994;SDS011;8614;48.522;9.206;2022-10-13T09:13:48;15.43;;;13.93;;
16994;SDS011;8614;48.522;9.206;2022-10-13T09:16:24;14.83;;;13.63;;
16994;SDS011;8614;48.522;9.206;2022-10-13T09:18:53;12.47;;;11.40;;
16994;SDS011;8614;48.522;9.206;2022-10-13T09:21:21;10.00;;;9.03;;
16994;SDS011;8614;48.522;9.206;2022-10-13T09:23:50;9.73;;;8.80;;
16994;SDS011;8614;48.522;9.206;2022-10-13T09:26:19;12.73;;;11.53;;
16994;SDS011;8614;48.522;9.206;2022-10-13T09:28:48;11.83;;;10.63;;
16994;SDS011;8614;48.522;9.206;2022-10-13T09:31:17;10.60;;;9.27;;
16994;SDS011;8614;48.522;9.206;2022-10-13T09:33:55;11.67;;;10.33;;
16994;SDS011;8614;48.522;9.206;2022-10-13T09:36:23;11.90;;;10.70;;
16994;SDS011;8614;48.522;9.206;2022-10-13T09:39:03;12.07;;;10.23;;
16994;SDS011;8614;48.522;9.206;2022-10-13T09:41:32;12.13;;;10.93;;
16994;SDS011;8614;48.522;9.206;2022-10-13T09:44:02;13.93;;;12.80;;
16994;SDS011;8614;48.522;9.206;2022-10-13T09:46:37;14.50;;;13.37;;
16994;SDS011;8614;48.522;9.206;2022-10-13T09:49:23;14.20;;;13.10;;
16994;SDS011;8614;48.522;9.206;2022-10-13T09:51:58;13.67;;;12.57;;
16994;SDS011;8614;48.522;9.206;2022-10-13T09:54:36;13.63;;;12.50;;
16994;SDS011;8614;48.522;9.206;2022-10-13T09:57:11;13.90;;;12.80;;
16994;SDS011;8614;48.522;9.206;2022-10-13T09:59:44;16.10;;;13.17;;
16994;SDS011;8614;48.522;9.206;2022-10-13T10:02:17;14.53;;;13.33;;
16994;SDS011;8614;48.522;9.206;2022-10-13T10:04:49;13.80;;;12.60;;
16994;SDS011;8614;48.522;9.206;2022-10-13T10:07:19;13.37;;;12.23;;
16994;SDS011;8614;48.522;9.206;2022-10-13T10:09:53;15.90;;;14.40;;
16994;SDS011;8614;48.522;9.206;2022-10-13T10:12:24;15.57;;;14.03;;
16994;SDS011;8614;48.522;9.206;2022-10-13T10:14:53;15.23;;;13.83;;
16994;SDS011;8614;48.522;9.206;2022-10-13T10:17:22;14.97;;;13.73;;
16994;SDS011;8614;48.522;9.206;2022-10-13T10:20:00;14.77;;;13.37;;
16994;SDS011;8614;48.522;9.206;2022-10-13T10:22:36;15.50;;;14.20;;
16994;SDS011;8614;48.522;9.206;2022-10-13T10:25:17;10.40;;;6.37;;
16994;SDS011;8614;48.522;9.206;2022-10-13T10:27:53;12.10;;;9.13;;
16994;SDS011;8614;48.522;9.206;2022-10-13T10:30:30;12.50;;;11.37;;
16994;SDS011;8614;48.522;9.206;2022-10-13T10:33:02;16.50;;;14.93;;
16994;SDS011;8614;48.522;9.206;2022-10-13T10:35:37;15.07;;;13.57;;
16994;SDS011;8614;48.522;9.206;2022-10-13T10:38:14;8.83;;;7.60;;
16994;SDS011;8614;48.522;9.206;2022-10-13T10:40:54;9.33;;;6.63;;
16994;SDS011;8614;48.522;9.206;2022-10-13T10:46:16;7.13;;;6.40;;
16994;SDS011;8614;48.522;9.206;2022-10-13T10:48:46;8.73;;;6.90;;
16994;SDS011;8614;48.522;9.206;2022-10-13T10:51:16;10.40;;;6.60;;
16994;SDS011;8614;48.522;9.206;2022-10-13T10:53:47;7.67;;;6.10;;
16994;SDS011;8614;48.522;9.206;2022-10-13T10:56:23;8.03;;;6.40;;
16994;SDS011;8614;48.522;9.206;2022-10-13T10:59:02;7.43;;;6.27;;
16994;SDS011;8614;48.522;9.206;2022-10-13T11:01:39;10.33;;;6.83;;
16994;SDS011;8614;48.522;9.206;2022-10-13T11:04:31;9.77;;;6.70;;
16994;SDS011;8614;48.522;9.206;2022-10-13T11:07:08;8.63;;;6.40;;
16994;SDS011;8614;48.522;9.206;2022-10-13T11:12:45;8.00;;;6.30;;
16994;SDS011;8614;48.522;9.206;2022-10-13T11:15:46;9.27;;;6.80;;
16994;SDS011;8614;48.522;9.206;2022-10-13T11:21:19;11.90;;;10.60;;
16994;SDS011;8614;48.522;9.206;2022-10-13T11:23:47;13.80;;;12.40;;
16994;SDS011;8614;48.522;9.206;2022-10-13T11:29:17;14.73;;;13.63;;
16994;SDS011;8614;48.522;9.206;2022-10-13T11:32:10;7.37;;;6.53;;
16994;SDS011;8614;48.522;9.206;2022-10-13T11:35:17;13.53;;;7.30;;
16994;SDS011;8614;48.522;9.206;2022-10-13T11:37:48;12.53;;;11.33;;
16994;SDS011;8614;48.522;9.206;2022-10-13T11:40:38;13.43;;;12.33;;
16994;SDS011;8614;48.522;9.206;2022-10-13T11:43:20;12.43;;;11.43;;
16994;SDS011;8614;48.522;9.206;2022-10-13T11:48:58;14.70;;;13.50;;
16994;SDS011;8614;48.522;9.206;2022-10-13T11:51:49;10.20;;;6.67;;
16994;SDS011;8614;48.522;9.206;2022-10-13T11:54:32;12.20;;;7.33;;
16994;SDS011;8614;48.522;9.206;2022-10-13T11:57:15;10.77;;;6.70;;
16994;SDS011;8614;48.522;9.206;2022-10-13T11:59:44;8.57;;;6.37;;
16994;SDS011;8614;48.522;9.206;2022-10-13T12:02:13;10.13;;;6.80;;
16994;SDS011;8614;48.522;9.206;2022-10-13T12:04:43;8.97;;;6.23;;
16994;SDS011;8614;48.522;9.206;2022-10-13T12:07:23;10.00;;;6.43;;
16994;SDS011;8614;48.522;9.206;2022-10-13T12:09:55;10.70;;;8.60;;
16994;SDS011;8614;48.522;9.206;2022-10-13T12:12:24;12.17;;;11.07;;
16994;SDS011;8614;48.522;9.206;2022-10-13T12:14:52;12.40;;;11.27;;
16994;SDS011;8614;48.522;9.206;2022-10-13T12:17:22;13.40;;;11.83;;
16994;SDS011;8614;48.522;9.206;2022-10-13T12:19:57;12.50;;;11.50;;
16994;SDS011;8614;48.522;9.206;2022-10-13T12:22:27;13.03;;;11.87;;
16994;SDS011;8614;48.522;9.206;2022-10-13T12:24:55;12.10;;;11.20;;
16994;SDS011;8614;48.522;9.206;2022-10-13T12:27:23;12.07;;;11.17;;
16994;SDS011;8614;48.522;9.206;2022-10-13T12:29:51;12.83;;;11.83;;
16994;SDS011;8614;48.522;9.206;2022-10-13T12:32:18;9.07;;;6.37;;
16994;SDS011;8614;48.522;9.206;2022-10-13T12:34:47;8.03;;;6.60;;
16994;SDS011;8614;48.522;9.206;2022-10-13T12:37:17;8.77;;;6.27;;
16994;SDS011;8614;48.522;9.206;2022-10-13T12:39:51;7.33;;;5.83;;
16994;SDS011;8614;48.522;9.206;2022-10-13T12:42:19;11.03;;;10.23;;
16994;SDS011;8614;48.522;9.206;2022-10-13T12:44:50;13.87;;;12.60;;
16994;SDS011;8614;48.522;9.206;2022-10-13T12:47:37;13.30;;;12.20;;
16994;SDS011;8614;48.522;9.206;2022-10-13T12:53:08;12.10;;;11.00;;
16994;SDS011;8614;48.522;9.206;2022-10-13T12:55:45;10.50;;;9.07;;
16994;SDS011;8614;48.522;9.206;2022-10-13T12:58:16;10.63;;;9.53;;
16994;SDS011;8614;48.522;9.206;2022-10-13T13:00:53;10.70;;;9.53;;
16994;SDS011;8614;48.522;9.206;2022-10-13T13:03:22;12.10;;;11.10;;
16994;SDS011;8614;48.522;9.206;2022-10-13T13:06:05;12.77;;;11.63;;
16994;SDS011;8614;48.522;9.206;2022-10-13T13:08:36;10.43;;;9.57;;
16994;SDS011;8614;48.522;9.206;2022-10-13T13:11:04;9.33;;;8.53;;
16994;SDS011;8614;48.522;9.206;2022-10-13T13:13:32;9.70;;;8.30;;
16994;SDS011;8614;48.522;9.206;2022-10-13T13:16:12;10.50;;;9.50;;
16994;SDS011;8614;48.522;9.206;2022-10-13T13:18:39;11.03;;;9.80;;
16994;SDS011;8614;48.522;9.206;2022-10-13T13:21:08;11.40;;;10.50;;
16994;SDS011;8614;48.522;9.206;2022-10-13T13:23:42;10.57;;;9.77;;
16994;SDS011;8614;48.522;9.206;2022-10-13T13:26:11;9.37;;;8.57;;
16994;SDS011;8614;48.522;9.206;2022-10-13T13:28:41;9.23;;;8.30;;
16994;SDS011;8614;48.522;9.206;2022-10-13T13:31:12;9.53;;;8.53;;
16994;SDS011;8614;48.522;9.206;2022-10-13T13:33:39;9.23;;;8.33;;
16994;SDS011;8614;48.522;9.206;2022-10-13T13:36:12;9.47;;;8.77;;
16994;SDS011;8614;48.522;9.206;2022-10-13T13:38:51;10.93;;;10.03;;
16994;SDS011;8614;48.522;9.206;2022-10-13T13:41:18;10.57;;;9.73;;
16994;SDS011;8614;48.522;9.206;2022-10-13T13:43:46;10.43;;;9.63;;
16994;SDS011;8614;48.522;9.206;2022-10-13T13:46:14;10.90;;;10.10;;
16994;SDS011;8614;48.522;9.206;2022-10-13T13:48:43;9.60;;;8.77;;
16994;SDS011;8614;48.522;9.206;2022-10-13T13:51:10;9.83;;;9.03;;
16994;SDS011;8614;48.522;9.206;2022-10-13T13:53:37;10.37;;;9.33;;
16994;SDS011;8614;48.522;9.206;2022-10-13T13:56:07;9.73;;;8.87;;
16994;SDS011;8614;48.522;9.206;2022-10-13T13:58:36;9.87;;;9.07;;
16994;SDS011;8614;48.522;9.206;2022-10-13T14:01:03;11.00;;;9.90;;
16994;SDS011;8614;48.522;9.206;2022-10-13T14:03:30;11.30;;;10.30;;
16994;SDS011;8614;48.522;9.206;2022-10-13T14:05:57;10.77;;;9.83;;
16994;SDS011;8614;48.522;9.206;2022-10-13T14:08:28;10.67;;;9.77;;
16994;SDS011;8614;48.522;9.206;2022-10-13T14:10:55;11.03;;;10.23;;
16994;SDS011;8614;48.522;9.206;2022-10-13T14:13:23;11.80;;;10.97;;
16994;SDS011;8614;48.522;9.206;2022-10-13T14:15:55;12.77;;;11.73;;
16994;SDS011;8614;48.522;9.206;2022-10-13T14:18:22;11.80;;;11.00;;
16994;SDS011;8614;48.522;9.206;2022-10-13T14:20:49;11.93;;;11.07;;
16994;SDS011;8614;48.522;9.206;2022-10-13T14:23:15;12.47;;;11.57;;
16994;SDS011;8614;48.522;9.206;2022-10-13T14:25:42;12.63;;;11.77;;
16994;SDS011;8614;48.522;9.206;2022-10-13T14:28:09;6.17;;;5.50;;
16994;SDS011;8614;48.522;9.206;2022-10-13T14:30:38;5.47;;;4.80;;
16994;SDS011;8614;48.522;9.206;2022-10-13T14:33:07;9.60;;;8.80;;
16994;SDS011;8614;48.522;9.206;2022-10-13T14:35:34;5.50;;;4.90;;
16994;SDS011;8614;48.522;9.206;2022-10-13T14:38:02;6.40;;;5.00;;
16994;SDS011;8614;48.522;9.206;2022-10-13T14:40:31;10.30;;;9.50;;
16994;SDS011;8614;48.522;9.206;2022-10-13T14:42:58;6.30;;;4.93;;
16994;SDS011;8614;48.522;9.206;2022-10-13T14:45:25;5.90;;;4.93;;
16994;SDS011;8614;48.522;9.206;2022-10-13T14:47:53;5.60;;;5.00;;
16994;SDS011;8614;48.522;9.206;2022-10-13T14:50:20;7.10;;;4.60;;
16994;SDS011;8614;48.522;9.206;2022-10-13T14:52:53;5.83;;;5.23;;
16994;SDS011;8614;48.522;9.206;2022-10-13T14:55:21;11.43;;;10.63;;
16994;SDS011;8614;48.522;9.206;2022-10-13T14:57:47;5.40;;;4.90;;
16994;SDS011;8614;48.522;9.206;2022-10-13T15:00:15;7.60;;;7.00;;
16994;SDS011;8614;48.522;9.206;2022-10-13T15:02:42;8.90;;;8.20;;
16994;SDS011;8614;48.522;9.206;2022-10-13T15:05:10;11.47;;;10.47;;
16994;SDS011;8614;48.522;9.206;2022-10-13T15:07:37;11.77;;;10.67;;
16994;SDS011;8614;48.522;9.206;2022-10-13T15:10:04;12.77;;;10.63;;
16994;SDS011;8614;48.522;9.206;2022-10-13T15:12:31;12.07;;;10.93;;
16994;SDS011;8614;48.522;9.206;2022-10-13T15:14:59;6.67;;;5.50;;
16994;SDS011;8614;48.522;9.206;2022-10-13T15:17:25;6.20;;;5.00;;
16994;SDS011;8614;48.522;9.206;2022-10-13T15:19:53;6.77;;;5.23;;